< < Back
Terminal Aerodrome Forecast


Current Version              Previous Versions:   1  2  3  4  5  6  7  8  9  

Terminal Aerodrome Forecast

739
FTUS42 KMLB 290900 AAA
TAFMCO
TAF AMD
KMCO 290900Z 2909/3006 VRB02KT P6SM FEW020 SCT100
     FM291500 13006KT P6SM SCT040
     FM292000 12008KT P6SM VCTS SCT030CB BKN060=



Latest METAR

562
SAUS70 KWBC 292000 RRI
MTRMCO
METAR KMCO 291953Z 08005KT 10SM TS FEW035CB SCT060 BKN110 BKN250 32/24
A3000 RMK AO2 TSB52 SLP158 VCSH N-E SE W OCNL LTGICCG N-E SE
W TS N-E SE W MOV NE T03170239


USA.gov is the U.S. government's official web portal to all federal, state and local government web resources and services.